ウィレムスタッド の空港の天気 - METARとTAF

キュラソー/ハト国際空港 ( TNCC / CUR ) - ウィレムスタッド (キュラソー島)
飛行場実況気象(Metar)
観測時間03/06 22:00 AST (03/07 02:00 UTC)
風向・風速東 6m/s
視程10km以上
天気現象
少しの雲 雲底高度 550m
気温26℃
湿度74%
気圧1013hPa
METARTNCC 070200Z 09011KT 9999 FEW018 26/21 Q1013 NOSIG
過去の天気等 Google飛行場航空写真 Wunderground天気予報

過去48時間のMETAR

飛行場予報(TAF)
発表時間: 3/06 19:15 AST (3/06 23:15 UTC)
予報対象時間: 6日20時 AST ~ 7日20時 AST
風向・風速東 6m/s
視程10km以上
全天の4割程度の雲 雲底高度 610m
7日0時 AST ~ 7日10時 AST に一時的に
全天の4割程度の雲 雲底高度 430m
全天の8割程度の雲 雲底高度 610m
TAF TNCC 062315Z 0700/0724 09012KT 9999 SCT020
TEMPO 0704/0714 SCT014 BKN020